Time;durP1;ratioP1;P1;durP2;ratioP2;P2;SDS_P1;SDS_P2;PMS_P1;PMS_P2;Temp;Humidity;BMP_temperature;BMP_pressure;BME280_temperature;BME280_humidity;BME280_pressure;Samples;Min_cycle;Max_cycle;Signal;HPM_P1;HPM_P2
2022/09/04 00:02:02;;;;;;;5.63;4.40;;;;;;;;;;5104727;28;20039;-89
2022/09/04 00:05:07;;;;;;;9.40;4.32;;;17.10;99.90;;;;;;5093860;28;20050;-87
2022/09/04 00:08:11;;;;;;;7.57;3.42;;;17.10;99.90;;;;;;5110939;28;20047;-88
2022/09/04 00:10:53;;;;;;;6.07;3.00;;;17.10;99.90;;;;;;5094428;28;20449;-90
2022/09/04 00:13:27;;;;;;;7.30;3.15;;;17.10;99.90;;;;;;5127259;28;20055;-88
2022/09/04 00:16:04;;;;;;;3.60;2.60;;;17.20;99.90;;;;;;5094135;28;20039;-89
2022/09/04 00:18:53;;;;;;;7.22;2.55;;;17.00;99.90;;;;;;5093733;28;20040;-90
2022/09/04 00:21:29;;;;;;;7.35;2.88;;;17.10;99.90;;;;;;5094000;28;20051;-84
2022/09/04 00:23:55;;;;;;;4.35;2.05;;;;;;;;;;5109964;28;20128;-84
2022/09/04 00:26:21;;;;;;;3.83;2.03;;;;;;;;;;5127737;28;20132;-85
2022/09/04 00:28:57;;;;;;;3.47;2.13;;;16.90;99.90;;;;;;5127563;28;20572;-85
2022/09/04 00:31:37;;;;;;;7.47;2.10;;;16.90;99.90;;;;;;5092631;28;20536;-86
2022/09/04 00:34:26;;;;;;;5.50;2.08;;;16.80;99.90;;;;;;5053487;28;20048;-85
2022/09/04 00:36:57;;;;;;;2.80;1.80;;;16.90;99.90;;;;;;5053298;28;20087;-85
2022/09/04 00:39:52;;;;;;;5.97;1.92;;;16.70;99.90;;;;;;5053469;28;20407;-86
2022/09/04 00:42:45;;;;;;;4.45;1.92;;;16.80;99.90;;;;;;5058063;28;20042;-85
2022/09/04 00:45:29;;;;;;;2.80;2.50;;;;;;;;;;5072817;28;20515;-85
2022/09/04 00:48:01;;;;;;;5.55;1.73;;;;;;;;;;5088870;28;20408;-85
2022/09/04 00:50:47;;;;;;;6.90;2.00;;;16.80;99.90;;;;;;5077011;28;20055;-85
2022/09/04 00:53:41;;;;;;;4.63;1.92;;;16.80;99.90;;;;;;5080562;28;20127;-85
2022/09/04 00:56:39;;;;;;;1.98;1.75;;;16.20;99.90;;;;;;5077134;28;20454;-85
2022/09/04 00:59:14;;;;;;;2.25;1.77;;;;;;;;;;5077156;28;20040;-85
2022/09/04 01:01:43;;;;;;;2.22;1.90;;;16.50;99.90;;;;;;5076636;28;20079;-87
2022/09/04 01:04:12;;;;;;;3.45;1.80;;;;;;;;;;5103183;27;20043;-85
2022/09/04 01:06:41;;;;;;;2.00;1.80;;;;;;;;;;5097021;28;20050;-85
2022/09/04 01:09:26;;;;;;;1.80;1.67;;;;;;;;;;5093599;28;20130;-85
2022/09/04 01:12:12;;;;;;;5.80;1.92;;;;;;;;;;5124702;27;20048;-85
2022/09/04 01:15:13;;;;;;;8.05;2.15;;;16.60;99.90;;;;;;5085814;27;20039;-85
2022/09/04 01:17:54;;;;;;;2.88;2.13;;;;;;;;;;5101358;27;20395;-85
2022/09/04 01:20:32;;;;;;;5.15;2.35;;;;;;;;;;5151810;27;20372;-86
2022/09/04 01:23:20;;;;;;;3.92;2.08;;;16.20;99.90;;;;;;5134716;27;20047;-86
2022/09/04 01:26:19;;;;;;;5.57;2.03;;;16.30;99.90;;;;;;5133942;27;20050;-86
2022/09/04 01:28:45;;;;;;;3.45;2.72;;;;;;;;;;5135781;27;20472;-86
2022/09/04 01:31:11;;;;;;;7.30;2.35;;;;;;;;;;5150987;27;20511;-86
2022/09/04 01:33:53;;;;;;;2.40;2.20;;;;;;;;;;5151377;27;20137;-85
2022/09/04 01:36:38;;;;;;;5.55;2.05;;;;;;;;;;5115076;27;20043;-86
2022/09/04 01:39:07;;;;;;;5.15;2.85;;;;;;;;;;5135491;27;20054;-85
2022/09/04 01:41:39;;;;;;;3.72;1.98;;;;;;;;;;5135265;27;20114;-85
2022/09/04 01:44:07;;;;;;;2.63;2.40;;;16.00;99.90;;;;;;5151147;27;20134;-84
2022/09/04 01:46:57;;;;;;;4.47;2.40;;;16.10;99.90;;;;;;5111184;28;20054;-85
2022/09/04 01:49:23;;;;;;;2.47;1.83;;;;;;;;;;5113204;28;20059;-86
2022/09/04 01:51:59;;;;;;;2.85;2.25;;;;;;;;;;5096213;28;20051;-85
2022/09/04 01:54:35;;;;;;;4.50;2.38;;;;;;;;;;5095697;28;20051;-86
2022/09/04 01:57:10;;;;;;;2.33;2.13;;;;;;;;;;5111793;28;20078;-88
2022/09/04 01:59:45;;;;;;;3.35;2.15;;;;;;;;;;5079621;28;20101;-89
2022/09/04 02:02:28;;;;;;;9.57;2.35;;;;;;;;;;5078875;28;20052;-89
2022/09/04 02:05:09;;;;;;;3.38;2.35;;;;;;;;;;5112772;28;20399;-89
2022/09/04 02:07:43;;;;;;;2.85;2.50;;;;;;;;;;5077350;28;20508;-89
2022/09/04 02:10:09;;;;;;;4.65;2.28;;;;;;;;;;5079378;28;20043;-90
2022/09/04 02:12:49;;;;;;;6.60;2.80;;;;;;;;;;5079328;28;20101;-89
2022/09/04 02:15:19;;;;;;;3.50;2.40;;;;;;;;;;5112999;28;20373;-90
2022/09/04 02:17:55;;;;;;;2.75;2.40;;;;;;;;;;5078951;28;20044;-90
2022/09/04 02:20:25;;;;;;;5.60;2.28;;;15.50;99.90;;;;;;5095145;28;20126;-91
2022/09/04 02:23:10;;;;;;;4.30;2.42;;;;;;;;;;5096216;28;20043;-89
2022/09/04 02:25:53;;;;;;;5.18;2.45;;;;;;;;;;5112538;28;20093;-88
2022/09/04 02:28:22;;;;;;;3.70;2.28;;;;;;;;;;5078940;28;20050;-91
2022/09/04 02:30:48;;;;;;;4.90;2.70;;;;;;;;;;5083413;28;20036;-90
2022/09/04 02:33:30;;;;;;;3.03;2.30;;;15.80;99.90;;;;;;5078375;28;20047;-90
2022/09/04 02:36:17;;;;;;;3.55;2.42;;;;;;;;;;5095319;28;20048;-89
2022/09/04 02:38:43;;;;;;;3.53;2.17;;;;;;;;;;5054052;28;20101;-90
2022/09/04 02:41:27;;;;;;;5.13;2.80;;;;;;;;;;5035639;28;20053;-90
2022/09/04 02:43:56;;;;;;;7.20;3.03;;;;;;;;;;5053854;28;20053;-85
2022/09/04 02:46:48;;;;;;;4.65;2.72;;;;;;;;;;5039359;28;20118;-85
2022/09/04 02:49:34;;;;;;;3.25;2.35;;;;;;;;;;5068581;28;20048;-86
2022/09/04 02:52:03;;;;;;;5.35;3.47;;;;;;;;;;5055575;28;20040;-86
2022/09/04 02:54:49;;;;;;;3.28;2.42;;;15.30;99.90;;;;;;5057476;28;20105;-86
2022/09/04 02:57:16;;;;;;;10.10;3.22;;;;;;;;;;5073741;28;20063;-85
2022/09/04 03:00:18;;;;;;;5.40;2.60;;;15.50;99.90;;;;;;5056765;28;20036;-86
2022/09/04 03:03:00;;;;;;;3.78;2.80;;;;;;;;;;5055103;28;20055;-86
2022/09/04 03:05:29;;;;;;;2.72;2.45;;;;;;;;;;5073549;28;20048;-85
2022/09/04 03:08:07;;;;;;;5.30;2.88;;;15.40;99.90;;;;;;5056184;28;20078;-85
2022/09/04 03:10:40;;;;;;;3.63;2.42;;;15.40;99.90;;;;;;5056955;28;20120;-86
2022/09/04 03:13:10;;;;;;;6.03;2.63;;;;;;;;;;5054859;28;20082;-86
2022/09/04 03:15:43;;;;;;;5.30;2.50;;;;;;;;;;5095905;27;20376;-86
2022/09/04 03:18:27;;;;;;;5.35;2.95;;;;;;;;;;5148988;27;20134;-86
2022/09/04 03:21:05;;;;;;;3.40;3.08;;;;;;;;;;5114816;27;20586;-85
2022/09/04 03:23:34;;;;;;;4.47;2.42;;;;;;;;;;5113089;27;20050;-87
2022/09/04 03:26:23;;;;;;;8.15;3.08;;;15.20;99.90;;;;;;5149099;27;20070;-84
2022/09/04 03:29:07;;;;;;;6.25;2.72;;;;;;;;;;5131911;27;20051;-86
2022/09/04 03:32:04;;;;;;;3.75;2.30;;;15.00;99.90;;;;;;5114628;27;20483;-85
2022/09/04 03:34:30;;;;;;;4.63;2.58;;;;;;;;;;5113084;27;20074;-87
2022/09/04 03:37:02;;;;;;;4.45;2.42;;;;;;;;;;5148900;27;20095;-86
2022/09/04 03:39:29;;;;;;;3.40;2.42;;;;;;;;;;5148904;27;20043;-85
2022/09/04 03:41:54;;;;;;;3.72;2.03;;;;;;;;;;5114818;28;20083;-85
2022/09/04 03:44:39;;;;;;;4.80;2.85;;;;;;;;;;5112915;28;20039;-86
2022/09/04 03:47:18;;;;;;;3.47;2.97;;;14.90;99.90;;;;;;5114238;27;20055;-86
2022/09/04 03:50:03;;;;;;;2.60;2.40;;;;;;;;;;5097290;27;20527;-87
2022/09/04 03:52:50;;;;;;;2.83;2.50;;;14.70;99.90;;;;;;5148884;27;20043;-87
2022/09/04 03:55:19;;;;;;;5.13;2.60;;;;;;;;;;5095957;28;20058;-85
2022/09/04 03:57:51;;;;;;;8.00;2.88;;;;;;;;;;5131731;27;20047;-88
2022/09/04 04:00:19;;;;;;;3.72;3.20;;;;;;;;;;5097286;28;20498;-86
2022/09/04 04:02:45;;;;;;;4.78;2.72;;;;;;;;;;5131873;28;20046;-86
2022/09/04 04:05:21;;;;;;;4.50;2.80;;;;;;;;;;5138050;27;20499;-87
2022/09/04 04:07:50;;;;;;;5.32;2.47;;;;;;;;;;5097286;28;20082;-86
2022/09/04 04:10:19;;;;;;;5.22;3.00;;;;;;;;;;5097410;28;20559;-86
2022/09/04 04:13:07;;;;;;;2.83;2.40;;;14.70;99.90;;;;;;5097474;28;20043;-86
2022/09/04 04:15:49;;;;;;;4.95;3.00;;;;;;;;;;5129997;28;20051;-86
2022/09/04 04:18:48;;;;;;;3.83;2.67;;;14.70;99.90;;;;;;5099362;27;20043;-87
2022/09/04 04:21:49;;;;;;;6.53;2.60;;;14.70;99.90;;;;;;5118000;27;20039;-86
2022/09/04 04:24:28;;;;;;;7.75;3.25;;;;;;;;;;5101188;27;20047;-86
2022/09/04 04:27:07;;;;;;;8.15;2.80;;;;;;;;;;5099549;27;20813;-87
2022/09/04 04:29:36;;;;;;;4.38;2.60;;;;;;;;;;5101192;27;20047;-86
2022/09/04 04:32:39;;;;;;;4.35;2.83;;;14.60;99.90;;;;;;5101447;27;20047;-86
2022/09/04 04:35:10;;;;;;;3.58;2.35;;;;;;;;;;5100953;27;20047;-86
2022/09/04 04:37:50;;;;;;;8.05;2.92;;;14.60;99.90;;;;;;5099180;27;20491;-87
2022/09/04 04:40:22;;;;;;;4.10;2.92;;;;;;;;;;5117948;27;20562;-86
2022/09/04 04:42:54;;;;;;;2.53;2.33;;;;;;;;;;5134948;27;20043;-86
2022/09/04 04:48:08;;;;;;;6.38;3.58;;;;;;;;;;5149984;27;20062;-87
2022/09/04 04:50:59;;;;;;;4.28;3.00;;;14.60;99.90;;;;;;5109562;27;20054;-85
2022/09/04 04:53:25;;;;;;;3.95;3.10;;;;;;;;;;5118160;27;20050;-85
2022/09/04 04:56:21;;;;;;;5.60;3.15;;;14.70;99.90;;;;;;5152298;27;20433;-85
2022/09/04 04:59:19;;;;;;;4.10;3.70;;;;;;;;;;5136346;27;20050;-86
2022/09/04 05:02:15;;;;;;;3.65;3.03;;;14.40;99.90;;;;;;5154020;27;20042;-86
2022/09/04 05:05:01;;;;;;;3.33;2.85;;;;;;;;;;5138366;27;20513;-86
2022/09/04 05:07:46;;;;;;;4.07;3.00;;;;;;;;;;5155169;27;20104;-86
2022/09/04 05:10:31;;;;;;;5.47;2.80;;;;;;;;;;5153969;27;20439;-85
2022/09/04 05:13:45;;;;;;;5.68;3.40;;;14.40;99.90;;;;;;5155270;27;20145;-86
2022/09/04 05:16:36;;;;;;;6.03;3.25;;;14.40;99.90;;;;;;5035585;28;20143;-85
2022/09/04 05:19:38;;;;;;;7.90;3.10;;;14.40;99.90;;;;;;5032951;28;20045;-85
2022/09/04 05:22:04;;;;;;;3.60;3.15;;;;;;;;;;5023426;28;20061;-84
2022/09/04 05:24:30;;;;;;;3.38;2.90;;;;;;;;;;5024204;28;20047;-85
2022/09/04 05:26:56;;;;;;;3.40;3.03;;;;;;;;;;5005569;28;20054;-85
2022/09/04 05:29:25;;;;;;;6.32;2.95;;;;;;;;;;5022406;28;20044;-86
2022/09/04 05:31:54;;;;;;;7.35;3.30;;;;;;;;;;5023311;28;20080;-85
2022/09/04 05:34:28;;;;;;;3.78;2.78;;;;;;;;;;5006810;28;20413;-85
2022/09/04 05:37:16;;;;;;;4.07;2.95;;;;;;;;;;5027843;28;20040;-84
2022/09/04 05:40:05;;;;;;;7.07;3.35;;;14.30;99.90;;;;;;4991146;28;20049;-85
2022/09/04 05:42:44;;;;;;;4.40;2.88;;;;;;;;;;5008978;28;20049;-85
2022/09/04 05:45:28;;;;;;;3.78;2.65;;;;;;;;;;5009669;28;20040;-85
2022/09/04 05:48:15;;;;;;;4.53;2.92;;;14.50;99.90;;;;;;5089876;27;20051;-85
2022/09/04 05:50:49;;;;;;;4.32;2.90;;;;;;;;;;5104726;27;20083;-84
2022/09/04 05:53:15;;;;;;;4.20;3.13;;;;;;;;;;5107588;27;20399;-84
2022/09/04 05:55:47;;;;;;;5.38;3.00;;;14.40;99.90;;;;;;5134523;27;20100;-85
2022/09/04 05:58:56;;;;;;;3.88;3.20;;;14.70;99.90;;;;;;5099472;27;20138;-85
2022/09/04 06:02:02;;;;;;;4.80;3.30;;;14.70;99.90;;;;;;5023970;28;20144;-85
2022/09/04 06:04:34;;;;;;;3.85;2.97;;;;;;;;;;5022967;28;20096;-86
2022/09/04 06:07:00;;;;;;;4.57;3.63;;;;;;;;;;5012326;28;20104;-85
2022/09/04 06:09:27;;;;;;;6.97;2.92;;;;;;;;;;5007117;28;20044;-84
2022/09/04 06:12:07;;;;;;;5.15;3.42;;;;;;;;;;5009315;28;20052;-85
2022/09/04 06:14:57;;;;;;;8.48;3.25;;;14.80;99.90;;;;;;5006879;28;20500;-85
2022/09/04 06:17:31;;;;;;;3.22;2.72;;;;;;;;;;5014317;28;20049;-85
2022/09/04 06:20:37;;;;;;;4.57;3.17;;;15.00;99.90;;;;;;5018577;28;20114;-84
2022/09/04 06:23:15;;;;;;;5.22;2.95;;;;;;;;;;4949219;28;20046;-84
2022/09/04 06:25:46;;;;;;;3.53;3.13;;;;;;;;;;4938964;28;20396;-85
2022/09/04 06:28:18;;;;;;;4.25;3.13;;;;;;;;;;4936470;28;20055;-85
2022/09/04 06:31:11;;;;;;;4.82;2.72;;;14.80;99.90;;;;;;4936900;28;20428;-84
2022/09/04 06:33:52;;;;;;;3.42;3.10;;;;;;;;;;4955266;28;20059;-86
2022/09/04 06:36:29;;;;;;;8.50;2.80;;;;;;;;;;4978052;28;20059;-85
2022/09/04 06:38:58;;;;;;;7.32;3.15;;;;;;;;;;5052878;28;20098;-86
2022/09/04 06:41:34;;;;;;;3.17;2.88;;;;;;;;;;5052384;28;20500;-85
2022/09/04 06:44:37;;;;;;;10.38;3.28;;;15.20;99.90;;;;;;5033695;28;20051;-84
2022/09/04 06:47:21;;;;;;;3.50;2.90;;;;;;;;;;5052855;28;20048;-84
2022/09/04 06:49:49;;;;;;;4.13;2.72;;;15.30;99.90;;;;;;5029986;28;20060;-92
2022/09/04 06:52:18;;;;;;;4.10;3.35;;;;;;;;;;5053193;28;20051;-93
2022/09/04 06:54:59;;;;;;;6.03;4.10;;;;;;;;;;5032906;28;20077;-91
2022/09/04 06:57:46;;;;;;;6.80;3.28;;;15.60;99.90;;;;;;5036666;28;20127;-91
2022/09/04 07:00:15;;;;;;;6.75;2.88;;;;;;;;;;5074299;27;20054;-89
2022/09/04 07:02:47;;;;;;;4.13;3.72;;;;;;;;;;5141759;27;20027;-92
2022/09/04 07:05:28;;;;;;;5.88;3.50;;;;;;;;;;5106514;27;20050;-91
2022/09/04 07:08:10;;;;;;;7.28;4.10;;;;;;;;;;5098751;27;20536;-90
2022/09/04 07:10:41;;;;;;;6.68;3.63;;;;;;;;;;5102123;27;20508;-85
2022/09/04 07:13:32;;;;;;;7.22;2.95;;;16.10;99.90;;;;;;5140230;27;20039;-87
2022/09/04 07:16:05;;;;;;;7.20;3.22;;;;;;;;;;5123143;27;20047;-90
2022/09/04 07:19:02;;;;;;;4.43;2.90;;;16.20;99.90;;;;;;5102229;27;20494;-87
2022/09/04 07:21:34;;;;;;;5.35;3.20;;;;;;;;;;5024038;28;20080;-89
2022/09/04 07:24:19;;;;;;;3.08;2.67;;;;;;;;;;5034461;28;20045;-87
2022/09/04 07:27:11;;;;;;;7.07;3.47;;;16.50;99.90;;;;;;5042075;28;20052;-87
2022/09/04 07:29:40;;;;;;;7.32;2.92;;;;;;;;;;5042900;28;20079;-87
2022/09/04 07:32:14;;;;;;;4.28;2.90;;;;;;;;;;5046036;28;20516;-87
2022/09/04 07:34:43;;;;;;;4.55;3.08;;;;;;;;;;5035309;28;20048;-87
2022/09/04 07:37:22;;;;;;;11.38;3.33;;;;;;;;;;5034551;28;20136;-87
2022/09/04 07:40:13;;;;;;;10.25;3.05;;;16.90;99.90;;;;;;5035624;28;20133;-92
2022/09/04 07:42:44;;;;;;;3.75;2.85;;;;;;;;;;5020467;28;20132;-91
2022/09/04 07:45:10;;;;;;;5.65;2.53;;;;;;;;;;5023927;28;20060;-90
2022/09/04 07:47:43;;;;;;;7.13;2.97;;;17.20;99.90;;;;;;5051865;28;20053;-89
2022/09/04 07:50:17;;;;;;;11.15;2.95;;;17.00;99.90;;;;;;5027062;28;20060;-88
2022/09/04 07:53:04;;;;;;;5.35;2.88;;;17.30;99.90;;;;;;5020459;28;20052;-89
2022/09/04 07:55:32;;;;;;;3.55;3.13;;;;;;;;;;5050882;28;20056;-89
2022/09/04 07:58:18;;;;;;;3.67;2.75;;;;;;;;;;5070119;28;20133;-90
2022/09/04 08:01:14;;;;;;;3.78;3.13;;;17.70;99.90;;;;;;5105884;28;20050;-89
2022/09/04 08:04:04;;;;;;;10.15;3.03;;;17.60;99.90;;;;;;5104629;28;20046;-88
2022/09/04 08:06:37;;;;;;;5.47;3.03;;;17.70;99.90;;;;;;5105503;27;20130;-89
2022/09/04 08:09:23;;;;;;;7.20;3.05;;;17.70;99.90;;;;;;5133549;27;20035;-88
2022/09/04 08:12:26;;;;;;;7.68;3.10;;;18.10;99.90;;;;;;5114971;28;20189;-89
2022/09/04 08:14:52;;;;;;;4.88;2.92;;;;;;;;;;5112008;28;20078;-88
2022/09/04 08:17:41;;;;;;;10.75;3.08;;;;;;;;;;5094250;28;20036;-88
2022/09/04 08:20:35;;;;;;;7.32;3.72;;;18.10;99.90;;;;;;5092490;27;20039;-88
2022/09/04 08:23:04;;;;;;;11.77;4.30;;;;;;;;;;5098272;28;20064;-88
2022/09/04 08:25:33;;;;;;;5.20;3.05;;;;;;;;;;5117712;28;20309;-89
2022/09/04 08:28:16;;;;;;;9.10;2.67;;;18.40;99.90;;;;;;5091309;28;20065;-88
2022/09/04 08:31:02;;;;;;;8.15;2.58;;;18.50;99.90;;;;;;5104519;28;20521;-88
2022/09/04 08:33:54;;;;;;;3.60;2.63;;;18.60;99.90;;;;;;5111364;28;20031;-88
2022/09/04 08:36:35;;;;;;;2.65;2.40;;;;;;;;;;5029459;28;20045;-88
2022/09/04 08:39:33;;;;;;;4.45;2.53;;;19.10;99.90;;;;;;5043546;28;20056;-87
2022/09/04 08:42:13;;;;;;;2.85;2.63;;;;;;;;;;4993815;28;20129;-87
2022/09/04 08:45:03;;;;;;;2.75;2.55;;;19.10;99.90;;;;;;5003449;28;20132;-87
2022/09/04 08:47:43;;;;;;;4.32;3.35;;;19.00;99.90;;;;;;4976573;28;20411;-87
2022/09/04 08:50:30;;;;;;;3.78;2.65;;;19.20;99.90;;;;;;4982782;28;20154;-87
2022/09/04 08:53:47;;;;;;;5.38;2.50;;;19.30;99.90;;;;;;4985036;28;20061;-87
2022/09/04 08:56:17;;;;;;;3.35;2.40;;;;;;;;;;4981318;28;20049;-87
2022/09/04 08:59:03;;;;;;;3.83;2.67;;;19.70;99.90;;;;;;4981982;28;20054;-87
2022/09/04 09:01:37;;;;;;;2.33;2.13;;;19.80;99.90;;;;;;4982508;28;20042;-87
2022/09/04 09:04:24;;;;;;;4.93;2.10;;;19.80;99.90;;;;;;4985111;28;20041;-87
2022/09/04 09:06:55;;;;;;;3.72;2.70;;;20.00;99.90;;;;;;4980811;28;20050;-87
2022/09/04 09:09:45;;;;;;;3.08;2.50;;;20.10;99.90;;;;;;4971730;28;20530;-87
2022/09/04 09:12:35;;;;;;;2.28;2.08;;;20.30;99.90;;;;;;4995201;28;20056;-87
2022/09/04 09:15:40;;;;;;;5.60;3.45;;;20.40;99.90;;;;;;5036609;28;20048;-87
2022/09/04 09:18:24;;;;;;;;;;;20.40;99.90;;;;;;5053729;28;20110;-88
2022/09/04 09:21:04;;;;;;;7.57;4.18;;;20.70;99.90;;;;;;5017530;28;19972;-87
2022/09/04 09:23:37;;;;;;;4.30;3.90;;;20.70;99.90;;;;;;5018019;28;20606;-87
2022/09/04 09:26:25;;;;;;;6.55;4.63;;;20.90;99.90;;;;;;5015198;28;20568;-87
2022/09/04 09:29:44;;;;;;;3.60;2.88;;;20.70;99.90;;;;;;5017951;28;20053;-87
2022/09/04 09:32:13;;;;;;;6.32;2.28;;;;;;;;;;4974201;28;20057;-87
2022/09/04 09:34:39;;;;;;;6.55;2.20;;;;;;;;;;4994834;28;20164;-87
2022/09/04 09:37:32;;;;;;;4.78;2.22;;;21.00;99.90;;;;;;4994642;28;20509;-87
2022/09/04 09:40:36;;;;;;;6.95;2.55;;;21.30;99.90;;;;;;5010745;28;20557;-87
2022/09/04 09:43:16;;;;;;;3.15;2.22;;;21.30;99.90;;;;;;5010731;28;20085;-87
2022/09/04 09:46:03;;;;;;;2.45;2.22;;;21.40;99.90;;;;;;5010291;28;20145;-87
2022/09/04 09:48:29;;;;;;;2.38;2.17;;;;;;;;;;4936697;29;20051;-87
2022/09/04 09:51:31;;;;;;;8.30;2.10;;;21.50;99.90;;;;;;4936702;28;20055;-87
2022/09/04 09:53:57;;;;;;;2.95;2.20;;;;;;;;;;4945685;28;20063;-87
2022/09/04 09:57:00;;;;;;;5.22;2.63;;;21.60;99.90;;;;;;4974856;28;20533;-87
2022/09/04 10:00:04;;;;;;;4.28;2.00;;;22.10;99.90;;;;;;4976162;28;20073;-87
2022/09/04 10:03:01;;;;;;;3.30;2.30;;;21.90;99.90;;;;;;4981476;28;20058;-88
2022/09/04 10:06:13;;;;;;;2.78;2.10;;;22.10;99.90;;;;;;5015695;28;20107;-87
2022/09/04 10:09:06;;;;;;;2.22;1.92;;;22.00;99.90;;;;;;4987612;28;20069;-86
2022/09/04 10:11:56;;;;;;;6.85;2.63;;;22.40;99.90;;;;;;4983335;28;20051;-87
2022/09/04 10:14:40;;;;;;;3.80;1.98;;;22.10;99.90;;;;;;4985464;28;20439;-84
2022/09/04 10:17:33;;;;;;;5.30;2.20;;;22.40;99.90;;;;;;4986111;28;20084;-83
2022/09/04 10:20:30;;;;;;;7.35;2.50;;;22.50;99.90;;;;;;4982917;28;20173;-84
2022/09/04 10:23:37;;;;;;;3.23;2.00;;;22.40;99.90;;;;;;4999707;28;20042;-84
2022/09/04 10:26:14;;;;;;;2.67;1.80;;;22.80;99.90;;;;;;4985745;28;20046;-84
2022/09/04 10:29:10;;;;;;;6.38;1.67;;;23.00;99.90;;;;;;4968677;28;20046;-85
2022/09/04 10:32:13;;;;;;;4.00;1.98;;;23.00;99.90;;;;;;4966002;28;20739;-84
2022/09/04 10:35:09;;;;;;;8.85;2.17;;;22.90;99.90;;;;;;4980902;28;20264;-84
2022/09/04 10:38:12;;;;;;;3.97;2.05;;;22.90;99.90;;;;;;4983620;28;20436;-84
2022/09/04 10:41:13;;;;;;;2.83;2.10;;;23.30;99.90;;;;;;4983161;28;20418;-84
2022/09/04 10:43:51;;;;;;;3.53;2.08;;;23.20;99.90;;;;;;4954659;28;20487;-84
2022/09/04 10:46:43;;;;;;;2.17;1.65;;;23.30;99.90;;;;;;5017556;28;20330;-84
2022/09/04 10:49:20;;;;;;;3.22;1.70;;;23.30;99.90;;;;;;5036876;28;20040;-83
2022/09/04 10:52:04;;;;;;;3.80;2.20;;;23.40;99.90;;;;;;5015521;28;21167;-83
2022/09/04 10:54:53;;;;;;;2.67;1.70;;;23.30;99.90;;;;;;5031472;28;20095;-86
2022/09/04 10:58:05;;;;;;;3.78;1.70;;;23.70;99.90;;;;;;5015953;28;20045;-85
2022/09/04 11:01:18;;;;;;;1.98;1.77;;;24.00;99.90;;;;;;5022182;28;20037;-85
2022/09/04 11:04:12;;;;;;;18.35;2.85;;;23.80;99.90;;;;;;5106824;27;20043;-85
2022/09/04 11:06:54;;;;;;;5.28;1.77;;;23.90;99.90;;;;;;5103591;27;20078;-85
2022/09/04 11:09:31;;;;;;;2.15;1.80;;;23.80;99.90;;;;;;5099603;27;20490;-86
2022/09/04 11:12:12;;;;;;;4.43;1.95;;;24.30;99.90;;;;;;5123142;27;20050;-85
2022/09/04 11:15:06;;;;;;;3.10;1.98;;;24.10;99.90;;;;;;5112110;27;20051;-86
2022/09/04 11:18:01;;;;;;;5.68;1.67;;;24.10;99.90;;;;;;5099660;27;20055;-85
2022/09/04 11:20:47;;;;;;;3.50;1.83;;;24.50;99.90;;;;;;5106739;27;20099;-85
2022/09/04 11:23:35;;;;;;;6.07;1.52;;;24.20;99.90;;;;;;5120913;27;20039;-86
2022/09/04 11:26:19;;;;;;;7.22;2.10;;;24.50;99.90;;;;;;5140973;27;20039;-86
2022/09/04 11:29:24;;;;;;;1.65;1.55;;;24.40;99.90;;;;;;5090554;27;20035;-85
2022/09/04 11:32:11;;;;;;;7.82;2.08;;;24.30;99.90;;;;;;5110042;27;20066;-85
2022/09/04 11:34:54;;;;;;;4.35;1.60;;;24.50;99.90;;;;;;5105305;27;20104;-85
2022/09/04 11:37:32;;;;;;;7.38;1.60;;;24.60;99.90;;;;;;5123731;27;20039;-85
2022/09/04 11:40:23;;;;;;;2.53;1.92;;;24.50;99.90;;;;;;5098254;27;20490;-85
2022/09/04 11:43:07;;;;;;;11.02;1.80;;;24.50;99.90;;;;;;5123052;27;20057;-85
2022/09/04 11:46:04;;;;;;;2.08;1.90;;;24.50;99.90;;;;;;5122651;27;20031;-86
2022/09/04 11:48:41;;;;;;;3.85;1.65;;;24.80;99.90;;;;;;5095385;27;20055;-85
2022/09/04 11:51:49;;;;;;;2.47;1.50;;;24.80;99.90;;;;;;5122334;27;20603;-86
2022/09/04 11:54:39;;;;;;;3.05;1.73;;;24.90;99.90;;;;;;5025758;28;20053;-85
2022/09/04 11:57:12;;;;;;;2.60;1.70;;;25.10;99.90;;;;;;5005104;28;20095;-85
2022/09/04 11:59:56;;;;;;;3.90;1.87;;;24.70;99.90;;;;;;5013147;28;20054;-86
2022/09/04 12:02:46;;;;;;;7.05;1.70;;;25.00;99.90;;;;;;5023860;28;20364;-86
2022/09/04 12:05:49;;;;;;;2.97;1.92;;;25.00;99.90;;;;;;4924647;29;20095;-87
2022/09/04 12:08:25;;;;;;;1.90;1.80;;;25.40;99.90;;;;;;4919727;29;20043;-84
2022/09/04 12:11:35;;;;;;;3.30;1.70;;;25.00;99.90;;;;;;4928785;29;20067;-84
2022/09/04 12:14:13;;;;;;;4.85;1.60;;;25.50;99.90;;;;;;4909503;29;20052;-88
2022/09/04 12:17:01;;;;;;;4.18;1.50;;;25.40;99.90;;;;;;4923629;29;20091;-84
2022/09/04 12:20:07;;;;;;;4.65;2.00;;;25.20;99.90;;;;;;4927288;29;20048;-84
2022/09/04 12:23:01;;;;;;;2.35;1.58;;;25.30;99.90;;;;;;4921347;29;20063;-84
2022/09/04 12:26:00;;;;;;;2.65;1.65;;;25.40;99.90;;;;;;4933092;29;20130;-86
2022/09/04 12:29:13;;;;;;;1.88;1.77;;;25.50;99.90;;;;;;4923086;28;20451;-85
2022/09/04 12:31:58;;;;;;;1.98;1.80;;;25.50;99.90;;;;;;4938609;28;20054;-87
2022/09/04 12:34:32;;;;;;;1.50;1.40;;;25.70;99.90;;;;;;4967736;28;20428;-88
2022/09/04 12:37:20;;;;;;;5.88;1.58;;;25.90;99.90;;;;;;4990424;28;20051;-87
2022/09/04 12:40:09;;;;;;;8.27;2.20;;;25.60;99.90;;;;;;4977219;28;20047;-86
2022/09/04 12:42:56;;;;;;;2.40;1.60;;;25.50;99.90;;;;;;5025958;28;20532;-89
2022/09/04 12:45:30;;;;;;;2.75;1.70;;;25.80;99.90;;;;;;5051020;28;20041;-86
2022/09/04 12:48:08;;;;;;;5.47;1.52;;;26.00;99.90;;;;;;5056188;28;20052;-89
2022/09/04 12:51:08;;;;;;;2.70;1.75;;;26.80;99.90;;;;;;5047986;28;20110;-82
2022/09/04 12:54:12;;;;;;;4.10;1.60;;;26.10;99.90;;;;;;5018688;28;20119;-86
2022/09/04 12:56:44;;;;;;;;;;;25.90;99.90;;;;;;5022495;28;20533;-84
2022/09/04 12:59:24;;;;;;;4.00;1.92;;;26.20;99.90;;;;;;4997437;28;19923;-86
2022/09/04 13:02:14;;;;;;;1.73;1.63;;;23.70;99.90;;;;;;4999633;28;20438;-84
2022/09/04 13:04:56;;;;;;;1.95;1.85;;;26.10;99.90;;;;;;5022134;28;20059;-86
2022/09/04 13:07:43;;;;;;;2.63;2.17;;;26.10;99.90;;;;;;5009787;28;20059;-84
2022/09/04 13:10:54;;;;;;;2.90;1.60;;;26.20;99.90;;;;;;5031451;28;20071;-89
2022/09/04 13:13:57;;;;;;;3.50;1.80;;;26.10;99.90;;;;;;4993125;28;20627;-88
2022/09/04 13:16:37;;;;;;;1.80;1.70;;;26.20;99.90;;;;;;4995467;28;20404;-88
2022/09/04 13:19:11;;;;;;;2.88;1.38;;;26.60;99.90;;;;;;5013313;28;20085;-88
2022/09/04 13:21:54;;;;;;;3.15;1.60;;;26.60;99.90;;;;;;4995947;28;20065;-85
2022/09/04 13:24:41;;;;;;;1.63;1.52;;;26.80;99.90;;;;;;5006961;28;20053;-88
2022/09/04 13:27:32;;;;;;;1.95;1.42;;;26.70;99.90;;;;;;5010658;28;20056;-87
2022/09/04 13:30:04;;;;;;;2.97;2.30;;;26.70;99.90;;;;;;5015370;28;20876;-86
2022/09/04 13:32:37;;;;;;;2.55;1.85;;;26.70;99.90;;;;;;5022437;28;20041;-89
2022/09/04 13:35:08;;;;;;;;;;;26.90;99.90;;;;;;5042982;28;20080;-85
2022/09/04 13:38:02;;;;;;;1.63;1.52;;;26.90;99.90;;;;;;5045347;28;19947;-84
2022/09/04 13:40:53;;;;;;;1.85;1.35;;;27.10;99.90;;;;;;5016177;28;20044;-84
2022/09/04 13:43:25;;;;;;;4.35;2.00;;;27.10;99.90;;;;;;5046007;28;20060;-86
2022/09/04 13:45:56;;;;;;;4.97;1.48;;;27.00;99.90;;;;;;5026772;28;20106;-86
2022/09/04 13:48:46;;;;;;;16.27;1.88;;;26.90;99.90;;;;;;5029334;28;20154;-85
2022/09/04 13:51:16;;;;;;;3.22;1.83;;;26.80;99.90;;;;;;5092718;27;20039;-86
2022/09/04 13:54:23;;;;;;;2.50;1.60;;;26.70;99.90;;;;;;5107118;27;20065;-87
2022/09/04 13:57:03;;;;;;;2.80;1.60;;;27.10;99.90;;;;;;5125588;27;20509;-83
2022/09/04 13:59:33;;;;;;;2.88;1.55;;;26.90;99.90;;;;;;5110430;27;20119;-87
2022/09/04 14:02:03;;;;;;;2.85;1.60;;;27.10;99.90;;;;;;5100169;27;20112;-88
2022/09/04 14:04:36;;;;;;;2.85;2.13;;;27.30;99.90;;;;;;5106544;27;20042;-85
2022/09/04 14:07:13;;;;;;;3.60;1.42;;;27.10;99.90;;;;;;5122859;27;20050;-85
2022/09/04 14:09:45;;;;;;;1.77;1.55;;;27.10;99.90;;;;;;5107317;27;20134;-84
2022/09/04 14:13:00;;;;;;;4.43;2.05;;;27.20;99.90;;;;;;5106833;27;20042;-81
2022/09/04 14:15:34;;;;;;;4.13;1.75;;;27.10;99.90;;;;;;5124113;27;20119;-80
2022/09/04 14:18:12;;;;;;;2.00;1.80;;;27.10;99.90;;;;;;5104373;27;20560;-82
2022/09/04 14:20:59;;;;;;;1.58;1.48;;;27.30;99.90;;;;;;5124562;27;20116;-80
2022/09/04 14:23:57;;;;;;;5.47;1.58;;;27.40;99.90;;;;;;5107875;27;20070;-84
2022/09/04 14:26:54;;;;;;;2.47;1.75;;;25.40;99.90;;;;;;5106995;27;20058;-85
2022/09/04 14:29:48;;;;;;;4.60;2.00;;;27.50;99.90;;;;;;5113423;27;20042;-82
2022/09/04 14:32:39;;;;;;;2.00;1.50;;;27.40;99.90;;;;;;5140831;27;20384;-82
2022/09/04 14:35:28;;;;;;;4.40;2.15;;;27.40;99.90;;;;;;5110670;27;20050;-82
2022/09/04 14:38:17;;;;;;;5.88;1.83;;;27.60;99.90;;;;;;5107643;27;20039;-81
2022/09/04 14:41:16;;;;;;;4.68;1.65;;;27.40;99.90;;;;;;5106333;27;20047;-82
2022/09/04 14:44:02;;;;;;;4.57;1.48;;;27.40;99.90;;;;;;5106621;27;20131;-80
2022/09/04 14:46:54;;;;;;;4.00;1.52;;;27.70;99.90;;;;;;5106700;27;20043;-81
2022/09/04 14:49:23;;;;;;;2.67;1.30;;;27.20;99.90;;;;;;5101016;27;20047;-81
2022/09/04 14:51:55;;;;;;;1.50;1.40;;;27.60;99.90;;;;;;5096661;27;20039;-83
2022/09/04 14:54:29;;;;;;;2.17;1.73;;;27.80;99.90;;;;;;5106871;27;20031;-81
2022/09/04 14:57:26;;;;;;;3.25;1.70;;;27.70;99.90;;;;;;5131549;27;20409;-81
2022/09/04 15:00:13;;;;;;;3.60;1.70;;;27.80;99.90;;;;;;5021662;28;20079;-82